createdAt,value
2022-10-17T09:20:25.848Z,74.69
2022-10-17T09:21:27.900Z,74.55
2022-10-17T09:22:26.799Z,73.32
2022-10-17T09:23:26.737Z,71.82
2022-10-17T09:24:26.885Z,70.16
2022-10-17T09:25:27.761Z,69.32
2022-10-17T09:26:26.689Z,67.97
2022-10-17T09:27:26.927Z,66.21
2022-10-17T09:28:26.892Z,64.66
2022-10-17T09:29:29.754Z,63.01
2022-10-17T09:30:44.228Z,61.66
2022-10-17T09:31:27.147Z,60.83
2022-10-17T09:32:26.957Z,59.92
2022-10-17T09:33:53.333Z,59.59
2022-10-17T09:34:31.909Z,59.30
2022-10-17T09:35:28.444Z,59.00
2022-10-17T09:36:27.191Z,59.49
2022-10-17T09:37:26.570Z,60.11
2022-10-17T09:38:27.172Z,60.94
2022-10-17T09:39:28.296Z,60.94
2022-10-17T09:40:26.589Z,61.10
2022-10-17T09:42:26.899Z,62.97
2022-10-17T09:43:27.184Z,64.19
2022-10-17T09:44:29.039Z,64.29
2022-10-17T09:45:30.769Z,64.09
2022-10-17T09:46:26.471Z,64.16
2022-10-17T09:47:26.617Z,63.37
2022-10-17T09:48:26.615Z,64.06
2022-10-17T09:49:31.352Z,63.67
2022-10-17T09:50:26.434Z,64.06
2022-10-17T09:51:26.473Z,63.96
2022-10-17T09:52:26.623Z,64.06
2022-10-17T09:53:26.363Z,64.06
2022-10-17T09:54:26.577Z,63.93
2022-10-17T09:55:26.392Z,63.73
2022-10-17T09:56:26.363Z,64.26
2022-10-17T09:57:26.319Z,64.26
2022-10-17T09:58:27.169Z,64.66
2022-10-17T09:59:26.304Z,64.86
2022-10-17T10:00:26.337Z,64.95
2022-10-17T10:01:26.378Z,65.19
2022-10-17T10:02:26.348Z,65.61
2022-10-17T10:03:26.273Z,65.84
2022-10-17T10:04:30.248Z,66.24
2022-10-17T10:05:26.917Z,66.44
2022-10-17T10:06:27.080Z,66.64
2022-10-17T10:07:29.394Z,65.64
2022-10-17T10:08:27.269Z,65.64
2022-10-17T10:09:26.210Z,65.81
2022-10-17T10:10:27.786Z,66.01
2022-10-17T10:11:27.366Z,65.22
2022-10-17T10:12:28.036Z,65.31
2022-10-17T10:13:26.152Z,65.81
2022-10-17T10:14:26.700Z,65.52
2022-10-17T10:15:27.696Z,65.28
2022-10-17T10:16:26.519Z,64.98
2022-10-17T10:17:26.110Z,64.59
2022-10-17T10:18:31.809Z,64.46
2022-10-17T10:19:26.093Z,62.64
2022-10-17T10:20:27.055Z,62.51
2022-10-17T10:21:27.032Z,62.02
2022-10-17T10:22:26.341Z,62.08
2022-10-17T10:23:26.041Z,62.38
2022-10-17T10:24:30.605Z,62.48
2022-10-17T10:25:26.031Z,62.68
2022-10-17T10:26:28.421Z,62.58
2022-10-17T10:27:26.037Z,62.38
2022-10-17T10:28:26.259Z,61.46
2022-10-17T10:29:26.004Z,60.96
2022-10-17T10:30:26.108Z,60.64
2022-10-17T10:32:34.305Z,60.81
2022-10-17T10:33:34.355Z,60.68
2022-10-17T10:34:34.340Z,60.71
2022-10-17T10:35:34.377Z,60.91
2022-10-17T10:36:34.385Z,60.81
2022-10-17T10:37:34.493Z,60.81
2022-10-17T10:38:34.681Z,60.38
2022-10-17T10:39:34.808Z,59.86
2022-10-17T10:40:34.277Z,60.19
2022-10-17T10:41:34.242Z,60.38
2022-10-17T10:42:34.868Z,60.71
2022-10-17T10:43:37.257Z,61.13
2022-10-17T10:44:34.219Z,61.33
2022-10-17T10:45:49.485Z,62.05
2022-10-17T10:46:34.955Z,62.45
2022-10-17T10:47:34.810Z,62.88
2022-10-17T10:48:34.835Z,62.88
2022-10-17T10:49:34.156Z,63.08
2022-10-17T10:50:34.340Z,63.40
2022-10-17T10:51:34.182Z,63.51
2022-10-17T10:52:34.134Z,63.90
2022-10-17T10:53:35.460Z,63.90
2022-10-17T10:55:34.101Z,64.73
2022-10-17T10:56:34.076Z,64.62
2022-10-17T10:57:34.719Z,64.92
2022-10-17T10:58:35.967Z,64.73
2022-10-17T10:59:34.037Z,64.43
2022-10-17T11:00:37.176Z,64.10
2022-10-17T11:01:36.409Z,63.70
2022-10-17T11:02:36.171Z,63.37
2022-10-17T11:03:34.034Z,62.48
2022-10-17T11:04:33.987Z,62.48
2022-10-17T11:05:33.992Z,62.18
2022-10-17T11:06:34.183Z,62.78
2022-10-17T11:07:34.812Z,62.38
2022-10-17T11:08:34.919Z,62.08
2022-10-17T11:09:34.825Z,62.48
2022-10-17T11:10:33.923Z,62.78
2022-10-17T11:11:33.966Z,62.29
2022-10-17T11:12:34.000Z,62.08
2022-10-17T11:13:33.908Z,62.45
2022-10-17T11:14:33.885Z,62.15
2022-10-17T11:15:33.863Z,62.05
2022-10-17T11:16:35.042Z,62.75
2022-10-17T11:17:34.096Z,63.15
2022-10-17T11:18:33.827Z,63.15
2022-10-17T11:19:33.826Z,63.24
2022-10-17T11:20:33.856Z,63.05
2022-10-17T11:21:33.890Z,63.28
2022-10-17T11:22:34.246Z,63.51
2022-10-17T11:23:33.780Z,64.10
2022-10-17T11:24:33.775Z,64.73
2022-10-17T11:25:33.745Z,64.92
2022-10-17T11:26:33.758Z,65.42
2022-10-17T11:27:33.766Z,64.83
2022-10-17T11:28:33.997Z,64.73
2022-10-17T11:29:33.697Z,64.20
2022-10-17T11:30:33.780Z,63.74
2022-10-17T11:31:34.097Z,63.48
2022-10-17T11:32:33.697Z,64.56
2022-10-17T11:33:55.626Z,65.29
2022-10-17T11:34:36.375Z,65.32
2022-10-17T11:35:33.845Z,65.42
2022-10-17T11:36:34.559Z,65.52
2022-10-17T11:37:34.324Z,65.62
2022-10-17T11:38:34.197Z,65.52
2022-10-17T11:39:34.374Z,66.25
2022-10-17T11:40:34.004Z,66.55
2022-10-17T11:41:33.783Z,67.18
2022-10-17T11:42:33.575Z,67.37
2022-10-17T11:43:33.774Z,67.18
2022-10-17T11:44:33.738Z,67.57
2022-10-17T11:45:50.784Z,67.90
2022-10-17T11:46:33.546Z,67.80
2022-10-17T11:47:39.497Z,68.20
2022-10-17T11:48:33.532Z,68.10
2022-10-17T11:49:36.886Z,67.80
2022-10-17T11:53:01.950Z,68.96
2022-10-17T11:53:33.523Z,68.86
2022-10-17T11:54:34.639Z,68.96
2022-10-17T11:55:33.491Z,69.06
2022-10-17T11:56:34.847Z,68.93
2022-10-17T11:57:33.407Z,69.13
2022-10-17T11:58:33.407Z,69.32
2022-10-17T11:59:33.377Z,69.13
2022-10-17T12:00:35.813Z,69.13
2022-10-17T12:01:33.375Z,68.93
2022-10-17T12:02:39.206Z,68.80
2022-10-17T12:03:35.380Z,68.40
2022-10-17T12:04:33.622Z,68.50
2022-10-17T12:05:33.304Z,67.80
2022-10-17T12:06:33.287Z,67.27
2022-10-17T12:07:33.660Z,66.78
2022-10-17T12:08:38.976Z,67.18
2022-10-17T12:09:33.271Z,67.47
2022-10-17T12:10:33.851Z,66.18
2022-10-17T12:11:33.885Z,65.39
2022-10-17T12:12:33.493Z,65.65
2022-10-17T12:13:33.839Z,64.46
2022-10-17T12:14:33.196Z,64.46
2022-10-17T12:15:33.189Z,64.33
2022-10-17T12:16:33.240Z,64.33
2022-10-17T12:17:33.482Z,64.13
2022-10-17T12:18:33.161Z,63.13
2022-10-17T12:19:34.237Z,63.73
2022-10-17T12:20:33.153Z,64.06
2022-10-17T12:21:33.148Z,64.33
2022-10-17T12:22:33.145Z,64.03
2022-10-17T12:23:33.099Z,63.83
2022-10-17T12:24:33.129Z,64.23
2022-10-17T12:25:33.165Z,64.33
2022-10-17T12:26:33.073Z,63.73
2022-10-17T12:27:33.065Z,63.86
2022-10-17T12:28:33.346Z,64.49
2022-10-17T12:29:33.067Z,65.22
2022-10-17T12:30:33.023Z,65.12
2022-10-17T12:31:34.328Z,65.02
2022-10-17T12:32:46.919Z,65.39
2022-10-17T12:33:32.994Z,65.31
2022-10-17T12:34:33.050Z,65.31
2022-10-17T12:35:32.968Z,65.22
2022-10-17T12:36:32.969Z,65.58
2022-10-17T12:37:32.947Z,65.28
2022-10-17T12:38:32.932Z,64.79
2022-10-17T12:39:32.920Z,64.59
2022-10-17T12:40:32.944Z,64.06
2022-10-17T12:41:32.919Z,64.95
2022-10-17T12:42:32.885Z,64.36
2022-10-17T12:43:33.037Z,64.26
2022-10-17T12:44:34.978Z,64.16
2022-10-17T12:45:32.857Z,64.16
2022-10-17T12:46:32.841Z,64.13
2022-10-17T12:47:32.834Z,64.23
2022-10-17T12:48:32.824Z,63.73
2022-10-17T12:49:32.816Z,63.76
2022-10-17T12:50:37.969Z,63.76
2022-10-17T12:51:37.614Z,64.39
2022-10-17T12:52:32.789Z,64.79
2022-10-17T12:53:32.758Z,65.09
2022-10-17T12:54:37.970Z,65.09
2022-10-17T12:55:32.788Z,64.49
2022-10-17T12:56:32.733Z,64.79
2022-10-17T12:57:32.713Z,64.92
2022-10-17T12:58:32.810Z,65.52
2022-10-17T12:59:32.704Z,65.72
2022-10-17T13:00:32.820Z,65.81
2022-10-17T13:01:32.695Z,66.21
2022-10-17T13:02:32.662Z,66.51
2022-10-17T13:03:32.664Z,66.01
2022-10-17T13:04:32.685Z,65.72
2022-10-17T13:05:32.625Z,66.21
2022-10-17T13:06:32.614Z,66.31
2022-10-17T13:07:32.606Z,66.21
2022-10-17T13:08:32.658Z,65.52
2022-10-17T13:09:32.588Z,65.19
2022-10-17T13:10:32.567Z,65.48
2022-10-17T13:11:32.596Z,65.39
2022-10-17T13:12:32.621Z,65.58
2022-10-17T13:13:32.545Z,65.19
2022-10-17T13:14:32.534Z,65.52
2022-10-17T13:15:32.517Z,65.72
2022-10-17T13:16:32.499Z,66.14
2022-10-17T13:17:32.541Z,66.44
2022-10-17T13:18:32.495Z,66.94
2022-10-17T13:19:32.542Z,67.04
2022-10-17T13:20:32.457Z,67.17
2022-10-17T13:21:32.453Z,67.37
2022-10-17T13:22:32.779Z,67.77
2022-10-17T13:23:32.425Z,67.77
2022-10-17T13:24:32.419Z,67.67
2022-10-17T13:25:33.867Z,67.97
2022-10-17T13:26:32.441Z,67.97
2022-10-17T13:27:32.406Z,68.16
2022-10-17T13:28:33.885Z,68.27
2022-10-17T13:29:32.365Z,68.16
2022-10-17T13:30:32.630Z,68.46
2022-10-17T13:31:32.335Z,68.56
2022-10-17T13:32:32.687Z,67.97
2022-10-17T13:33:32.341Z,68.07
2022-10-17T13:34:32.322Z,68.66
2022-10-17T13:36:32.293Z,68.60
2022-10-17T13:37:32.282Z,68.50
2022-10-17T13:38:32.272Z,68.60
2022-10-17T13:39:45.617Z,68.90
2022-10-17T13:40:49.218Z,68.90
2022-10-17T13:41:36.836Z,68.90
2022-10-17T13:42:32.615Z,68.79
2022-10-17T13:43:32.199Z,68.90
2022-10-17T13:44:32.224Z,68.79
2022-10-17T13:45:32.187Z,68.90
2022-10-17T13:46:39.815Z,69.09
2022-10-17T13:47:32.163Z,69.43
2022-10-17T13:48:32.150Z,69.43
2022-10-17T13:49:32.368Z,69.43
2022-10-17T13:50:44.168Z,69.62
2022-10-17T13:51:32.148Z,69.73
2022-10-17T13:52:32.480Z,70.03
2022-10-17T13:53:32.093Z,69.82
2022-10-17T13:54:32.075Z,70.03
2022-10-17T13:55:32.063Z,70.32
2022-10-17T13:56:32.077Z,69.82
2022-10-17T13:57:32.428Z,69.82
2022-10-17T13:58:32.047Z,69.92
2022-10-17T13:59:32.041Z,69.82
2022-10-17T14:00:32.068Z,70.03
2022-10-17T14:01:32.004Z,70.03
2022-10-17T14:02:32.007Z,69.92
2022-10-17T14:03:47.643Z,70.22
2022-10-17T14:04:44.712Z,70.22
2022-10-17T14:05:31.975Z,70.56
2022-10-17T14:06:31.941Z,70.56
2022-10-17T14:07:46.246Z,70.52
2022-10-17T14:08:31.983Z,70.52
2022-10-17T14:09:31.924Z,70.32
2022-10-17T14:10:31.901Z,70.12
2022-10-17T14:11:31.890Z,70.22
2022-10-17T14:12:31.881Z,70.22
2022-10-17T14:13:31.867Z,70.22
2022-10-17T14:14:46.064Z,70.52
2022-10-17T14:15:31.855Z,70.12
2022-10-17T14:16:31.833Z,70.22
2022-10-17T14:17:32.455Z,70.52
2022-10-17T14:18:35.912Z,70.82
2022-10-17T14:19:31.810Z,70.92
2022-10-17T14:21:12.741Z,70.62
2022-10-17T14:21:43.787Z,70.52
2022-10-17T14:22:31.773Z,70.62
2022-10-17T14:23:31.769Z,70.42
2022-10-17T14:24:31.769Z,70.12
2022-10-17T14:25:31.745Z,70.92
2022-10-17T14:26:31.726Z,70.62
2022-10-17T14:27:32.164Z,70.52
2022-10-17T14:28:31.799Z,70.72
2022-10-17T14:29:31.686Z,70.42
2022-10-17T14:30:55.301Z,70.22
2022-10-17T14:31:31.680Z,71.42
2022-10-17T14:32:31.659Z,70.52
2022-10-17T14:33:31.647Z,70.42
2022-10-17T14:34:31.659Z,70.42
2022-10-17T14:35:41.605Z,70.62
2022-10-17T14:36:31.619Z,71.02
2022-10-17T14:37:31.916Z,70.72
2022-10-17T14:38:31.593Z,71.51
2022-10-17T14:39:31.576Z,71.75
2022-10-17T14:43:37.231Z,71.45
2022-10-17T14:44:39.215Z,70.86
2022-10-17T14:45:38.186Z,71.25
2022-10-17T14:46:39.176Z,71.45
2022-10-17T14:47:43.668Z,71.65
2022-10-17T14:48:38.703Z,71.55
2022-10-17T14:49:38.147Z,71.75
2022-10-17T14:50:38.715Z,72.25
2022-10-17T14:51:50.341Z,71.95
2022-10-17T14:52:38.114Z,72.05
2022-10-17T14:53:38.120Z,71.95
2022-10-17T14:54:38.083Z,71.05
2022-10-17T14:55:38.071Z,71.65
2022-10-17T14:56:38.056Z,71.15
2022-10-17T14:57:38.054Z,71.35
2022-10-17T14:58:38.117Z,71.65
2022-10-17T14:59:53.302Z,71.48
2022-10-17T15:00:38.062Z,71.29
2022-10-17T15:01:38.049Z,71.69
2022-10-17T15:02:38.001Z,71.59
2022-10-17T15:03:38.042Z,71.98
2022-10-17T15:04:37.973Z,72.38
2022-10-17T15:05:38.686Z,72.49
2022-10-17T15:06:37.955Z,73.28
2022-10-17T15:07:37.967Z,74.48
2022-10-17T15:08:38.005Z,75.18
2022-10-17T15:09:37.942Z,75.27
2022-10-17T15:10:37.908Z,76.01
2022-10-17T15:11:38.719Z,76.51
2022-10-17T15:12:41.391Z,77.01
2022-10-17T15:13:42.202Z,77.40
2022-10-17T15:14:37.873Z,77.40
2022-10-17T15:15:38.692Z,77.55
2022-10-17T15:16:37.849Z,77.64
2022-10-17T15:17:37.925Z,77.74
2022-10-17T15:18:37.817Z,77.44
2022-10-17T15:19:37.848Z,77.55
2022-10-17T15:20:38.707Z,77.44
2022-10-17T15:21:40.799Z,77.55
2022-10-17T15:22:38.711Z,77.28
2022-10-17T15:23:37.816Z,77.98
2022-10-17T15:24:38.726Z,78.08
2022-10-17T15:25:37.787Z,76.08
2022-10-17T15:26:37.729Z,76.78
2022-10-17T15:27:38.713Z,75.59
2022-10-17T15:28:37.840Z,77.68
2022-10-17T15:29:37.778Z,76.88
2022-10-17T15:30:37.708Z,76.38
2022-10-17T15:31:38.199Z,77.08
2022-10-17T15:32:44.215Z,77.68
2022-10-17T15:33:37.669Z,77.58
2022-10-17T15:34:37.646Z,74.08
2022-10-17T15:35:37.701Z,73.88
2022-10-17T15:36:37.635Z,73.69
2022-10-17T15:37:37.642Z,74.19
2022-10-17T15:38:37.596Z,73.79
2022-10-17T15:39:38.235Z,73.39
2022-10-17T15:40:37.581Z,74.88
2022-10-17T15:41:45.071Z,72.59
2022-10-17T15:42:37.582Z,71.59
2022-10-17T15:43:37.555Z,71.89
2022-10-17T15:44:37.554Z,72.99
2022-10-17T15:45:37.537Z,72.99
2022-10-17T15:46:38.262Z,73.09
2022-10-17T15:47:38.258Z,72.59
2022-10-17T15:48:38.260Z,72.29
2022-10-17T15:49:37.493Z,73.69
2022-10-17T15:50:38.253Z,73.39
2022-10-17T15:51:37.473Z,73.72
2022-10-17T15:52:37.451Z,73.52
2022-10-17T15:53:37.699Z,74.22
2022-10-17T15:54:37.430Z,74.52
2022-10-17T15:55:37.419Z,74.52
2022-10-17T15:56:37.412Z,74.72
2022-10-17T15:57:37.394Z,75.02
2022-10-17T15:58:37.403Z,75.32
2022-10-17T15:59:37.377Z,75.52
2022-10-17T16:00:38.350Z,75.76
2022-10-17T16:01:40.728Z,76.35
2022-10-17T16:02:37.352Z,76.45
2022-10-17T16:03:37.339Z,77.15
2022-10-17T16:04:37.328Z,77.66
2022-10-17T16:05:37.327Z,78.75
2022-10-17T16:06:37.297Z,79.09
2022-10-17T16:07:37.283Z,79.39
2022-10-17T16:08:37.324Z,79.49
2022-10-17T16:09:37.310Z,79.29
2022-10-17T16:10:37.793Z,79.43
2022-10-17T16:11:37.252Z,79.43
2022-10-17T16:12:37.785Z,79.53
2022-10-17T16:13:37.231Z,80.03
2022-10-17T16:14:37.232Z,80.33
2022-10-17T16:15:37.224Z,80.97
2022-10-17T16:16:37.776Z,81.27
2022-10-17T16:17:37.207Z,81.37
2022-10-17T16:18:37.189Z,81.57
2022-10-17T16:19:37.766Z,81.77
2022-10-17T16:20:37.145Z,81.67
2022-10-17T16:21:43.657Z,81.77
2022-10-17T16:22:37.143Z,81.87
2022-10-17T16:23:37.135Z,81.77
2022-10-17T16:24:37.818Z,81.97
2022-10-17T16:25:37.119Z,82.21
2022-10-17T16:26:37.799Z,82.31
2022-10-17T16:27:37.090Z,82.41
2022-10-17T16:28:37.093Z,82.81
2022-10-17T16:29:37.065Z,82.61
2022-10-17T16:30:37.090Z,82.91
2022-10-17T16:31:37.058Z,83.11
2022-10-17T16:32:37.002Z,83.15
2022-10-17T16:33:36.997Z,83.15
2022-10-17T16:34:37.820Z,83.25
2022-10-17T16:35:37.712Z,83.35
2022-10-17T16:36:36.980Z,83.55
2022-10-17T16:37:37.829Z,83.55
2022-10-17T16:38:37.801Z,83.45
2022-10-17T16:39:36.930Z,83.65
2022-10-17T16:40:36.905Z,83.75
2022-10-17T16:41:43.956Z,83.95
2022-10-17T16:42:36.876Z,84.05
2022-10-17T16:43:37.835Z,84.25
2022-10-17T16:44:36.890Z,84.35
2022-10-17T16:45:36.854Z,84.65
2022-10-17T16:46:37.817Z,84.79
2022-10-17T16:47:37.829Z,84.79
2022-10-17T16:48:36.847Z,84.89
2022-10-17T16:49:40.353Z,84.89
2022-10-17T16:50:37.317Z,84.99
2022-10-17T16:51:37.326Z,85.19
2022-10-17T16:52:37.305Z,85.39
2022-10-17T16:53:37.317Z,85.60
2022-10-17T16:54:36.768Z,85.69
2022-10-17T16:55:37.347Z,85.74
2022-10-17T16:56:36.737Z,85.83
2022-10-17T16:57:36.756Z,86.04
2022-10-17T16:58:36.750Z,86.33
2022-10-17T16:59:37.338Z,86.54
2022-10-17T17:00:36.742Z,86.54
2022-10-17T17:01:43.246Z,86.74
2022-10-17T17:02:39.380Z,86.84
2022-10-17T17:03:36.644Z,86.94
2022-10-17T17:04:39.350Z,86.88
2022-10-17T17:05:37.350Z,86.88
2022-10-17T17:06:36.655Z,87.08
2022-10-17T17:07:39.354Z,87.08
2022-10-17T17:08:36.603Z,87.08
2022-10-17T17:09:36.587Z,87.08
2022-10-17T17:10:36.572Z,86.88
2022-10-17T17:11:36.570Z,86.88
2022-10-17T17:12:36.550Z,86.38
2022-10-17T17:13:39.343Z,86.68
2022-10-17T17:14:39.356Z,86.88
2022-10-17T17:15:37.433Z,86.88
2022-10-17T17:16:39.354Z,86.78
2022-10-17T17:17:49.554Z,86.88
2022-10-17T17:18:37.363Z,86.98
2022-10-17T17:19:39.353Z,85.97
2022-10-17T17:20:36.460Z,84.97
2022-10-17T17:21:44.232Z,83.97
2022-10-17T17:22:37.388Z,83.57
2022-10-17T17:23:36.437Z,83.47
2022-10-17T17:24:36.517Z,83.33
2022-10-17T17:25:36.409Z,83.03
2022-10-17T17:26:37.394Z,82.82
2022-10-17T17:27:36.385Z,82.82
2022-10-17T17:28:36.403Z,82.53
2022-10-17T17:29:36.882Z,82.53
2022-10-17T17:30:36.878Z,82.43
2022-10-17T17:31:36.403Z,82.43
2022-10-17T17:32:36.382Z,82.43
2022-10-17T17:33:39.362Z,82.43
2022-10-17T17:34:36.925Z,82.18
2022-10-17T17:35:36.293Z,82.09
2022-10-17T17:36:36.304Z,82.09
2022-10-17T17:37:36.277Z,82.09
2022-10-17T17:38:36.303Z,82.09
2022-10-17T17:39:36.879Z,82.29
2022-10-17T17:40:36.255Z,82.29
2022-10-17T17:41:42.792Z,82.18
2022-10-17T17:42:36.942Z,82.39
2022-10-17T17:43:36.215Z,82.53
2022-10-17T17:44:36.910Z,82.73
2022-10-17T17:45:36.930Z,82.93
2022-10-17T17:46:36.933Z,83.03
2022-10-17T17:47:36.911Z,83.23
2022-10-17T17:48:36.914Z,83.63
2022-10-17T17:49:36.156Z,84.03
2022-10-17T17:50:36.927Z,84.37
2022-10-17T17:51:36.944Z,84.57
2022-10-17T17:52:36.159Z,84.77
2022-10-17T17:53:36.100Z,84.97
2022-10-17T17:54:40.049Z,85.27
2022-10-17T17:55:36.930Z,85.47
2022-10-17T17:56:36.076Z,85.72
2022-10-17T17:57:36.931Z,85.92
2022-10-17T17:58:36.918Z,86.12
2022-10-17T17:59:36.915Z,86.22
2022-10-17T18:00:36.923Z,86.32
2022-10-17T18:01:42.572Z,86.32
2022-10-17T18:02:39.621Z,86.62
2022-10-17T18:03:36.943Z,86.72
2022-10-17T18:04:35.974Z,86.92
2022-10-17T18:05:36.974Z,86.92
2022-10-17T18:06:36.945Z,87.12
2022-10-17T18:07:36.443Z,87.22
2022-10-17T18:08:36.451Z,87.37
2022-10-17T18:09:35.943Z,87.52
2022-10-17T18:10:36.450Z,87.57
2022-10-17T18:11:36.458Z,87.46
2022-10-17T18:12:36.457Z,87.57
2022-10-17T18:13:35.879Z,87.66
2022-10-17T18:14:36.460Z,87.87
2022-10-17T18:15:35.885Z,87.96
2022-10-17T18:16:36.464Z,88.07
2022-10-17T18:17:35.879Z,88.27
2022-10-17T18:18:36.464Z,88.47
2022-10-17T18:19:35.846Z,88.57
2022-10-17T18:20:36.461Z,89.07
2022-10-17T18:21:35.799Z,89.07
2022-10-17T18:22:36.494Z,89.27
2022-10-17T18:23:35.807Z,89.78
2022-10-17T18:24:36.461Z,89.78
2022-10-17T18:25:36.479Z,89.67
2022-10-17T18:26:36.457Z,89.92
2022-10-17T18:27:35.739Z,90.22
2022-10-17T18:28:36.558Z,90.32
2022-10-17T18:29:35.706Z,90.32
2022-10-17T18:30:35.693Z,90.62
2022-10-17T18:31:36.293Z,90.42
2022-10-17T18:32:35.692Z,90.62
2022-10-17T18:33:35.722Z,90.72
2022-10-17T18:34:35.663Z,90.52
2022-10-17T18:35:35.647Z,90.72
2022-10-17T18:36:35.660Z,91.22
2022-10-17T18:37:35.665Z,91.02
2022-10-17T18:38:35.603Z,91.32
2022-10-17T18:39:35.593Z,91.77
2022-10-17T18:40:35.576Z,91.67
2022-10-17T18:41:35.589Z,92.07
2022-10-17T18:42:35.578Z,92.27
2022-10-17T18:43:35.602Z,92.47
2022-10-17T18:44:35.553Z,92.68
2022-10-17T18:45:35.544Z,92.88
2022-10-17T18:46:35.680Z,92.97
2022-10-17T18:47:35.522Z,93.18
2022-10-17T18:48:35.492Z,93.42
2022-10-17T18:49:35.480Z,93.58
2022-10-17T18:50:35.968Z,93.73
2022-10-17T18:51:35.473Z,93.93
2022-10-17T18:52:35.445Z,94.02
2022-10-17T18:53:35.483Z,94.13
2022-10-17T18:54:35.428Z,94.33
2022-10-17T18:55:35.455Z,94.53
2022-10-17T18:56:35.432Z,94.63
2022-10-17T18:57:35.441Z,94.83
2022-10-17T18:58:35.395Z,94.73
2022-10-17T18:59:35.434Z,94.73
2022-10-17T19:00:35.383Z,94.93
2022-10-17T19:01:35.411Z,95.13
2022-10-17T19:02:37.272Z,95.38
2022-10-17T19:03:35.331Z,95.23
2022-10-17T19:04:35.367Z,95.48
2022-10-17T19:05:35.306Z,95.58
2022-10-17T19:06:35.292Z,95.88
2022-10-17T19:07:35.305Z,96.19
2022-10-17T19:08:35.281Z,96.48
2022-10-17T19:09:35.261Z,96.78
2022-10-17T19:10:35.262Z,96.98
2022-10-17T19:11:35.236Z,96.98
2022-10-17T19:12:35.235Z,97.09
2022-10-17T19:13:35.388Z,97.03
2022-10-17T19:14:35.233Z,97.13
2022-10-17T19:15:35.207Z,97.24
2022-10-17T19:16:35.204Z,97.53
2022-10-17T19:17:35.200Z,97.64
2022-10-17T19:18:35.182Z,97.64
2022-10-17T19:19:35.837Z,97.84
2022-10-17T19:20:35.164Z,97.94
2022-10-17T19:21:35.320Z,98.24
2022-10-17T19:22:35.130Z,98.24
2022-10-17T19:23:35.128Z,98.34
2022-10-17T19:24:35.100Z,98.44
2022-10-17T19:25:35.099Z,98.69
2022-10-17T19:26:35.101Z,98.79
2022-10-17T19:27:35.054Z,98.90
2022-10-17T19:28:35.132Z,98.79
2022-10-17T19:29:35.252Z,98.90
2022-10-17T19:30:35.031Z,98.99
2022-10-17T19:31:35.990Z,99.10
2022-10-17T19:32:35.008Z,99.30
2022-10-17T19:33:35.011Z,99.30
2022-10-17T19:34:34.998Z,99.30
2022-10-17T19:35:35.085Z,99.30
2022-10-17T19:36:34.958Z,99.40
2022-10-17T19:37:34.948Z,99.40
2022-10-17T19:38:34.956Z,99.30
2022-10-17T19:39:34.927Z,99.40
2022-10-17T19:40:34.963Z,99.40
2022-10-17T19:41:34.905Z,99.50
2022-10-17T19:42:34.944Z,99.70
2022-10-17T19:43:34.892Z,99.70
2022-10-17T19:44:34.891Z,99.70
2022-10-17T19:45:34.869Z,99.80
2022-10-17T19:46:34.904Z,99.90
2022-10-17T19:47:34.865Z,99.99
2022-10-17T19:48:34.837Z,99.90
2022-10-17T19:49:34.847Z,99.99
2022-10-17T19:50:36.688Z,99.99
2022-10-17T19:51:34.856Z,99.99
2022-10-17T19:52:34.785Z,99.99
2022-10-17T19:53:34.798Z,99.99
2022-10-17T19:54:34.789Z,99.99
2022-10-17T19:55:34.731Z,99.99
2022-10-17T19:56:34.750Z,99.99
2022-10-17T19:57:34.725Z,99.99
2022-10-17T19:58:34.715Z,99.99
2022-10-17T19:59:34.727Z,99.99
2022-10-17T20:00:34.705Z,99.99
2022-10-17T20:01:34.768Z,99.99
2022-10-17T20:02:34.664Z,99.99
2022-10-17T20:03:34.657Z,99.99
2022-10-17T20:04:34.657Z,99.99
2022-10-17T20:05:34.661Z,99.99
2022-10-17T20:06:34.695Z,99.99
2022-10-17T20:07:34.608Z,99.99
2022-10-17T20:08:34.591Z,99.99
2022-10-17T20:09:34.606Z,99.99
2022-10-17T20:10:34.587Z,99.99
2022-10-17T20:11:41.094Z,99.99
2022-10-17T20:12:34.565Z,99.99
2022-10-17T20:13:34.543Z,99.99
2022-10-17T20:14:38.688Z,99.99
2022-10-17T20:15:34.518Z,99.99
2022-10-17T20:16:34.536Z,99.99
2022-10-17T20:18:34.501Z,99.99
2022-10-17T20:19:34.482Z,99.99
2022-10-17T20:20:34.465Z,99.99
2022-10-17T20:21:34.457Z,99.99
2022-10-17T20:22:34.455Z,99.99
2022-10-17T20:23:34.421Z,99.99
2022-10-17T20:24:34.418Z,99.99
2022-10-17T20:25:34.436Z,99.99
2022-10-17T20:26:39.056Z,99.99
2022-10-17T20:27:34.393Z,99.99
2022-10-17T20:28:34.385Z,99.99
2022-10-17T20:29:34.363Z,99.99
2022-10-17T20:30:34.350Z,99.99
2022-10-17T20:31:34.346Z,99.99
2022-10-17T20:32:34.333Z,99.99
2022-10-17T20:33:34.316Z,99.99
2022-10-17T20:34:34.307Z,99.99
2022-10-17T20:35:34.328Z,99.99
2022-10-17T20:36:34.311Z,99.99
2022-10-17T20:37:36.427Z,99.99
2022-10-17T20:38:34.255Z,99.99
2022-10-17T20:39:34.275Z,99.99
2022-10-17T20:40:35.615Z,99.99
2022-10-17T20:41:34.241Z,99.99
2022-10-17T20:42:34.224Z,99.99
2022-10-17T20:43:34.202Z,99.99
2022-10-17T20:44:34.259Z,99.99
2022-10-17T20:45:50.323Z,99.99
2022-10-17T20:46:39.756Z,99.99
2022-10-17T20:47:45.866Z,99.99
2022-10-17T20:48:34.177Z,99.99
2022-10-17T20:49:34.149Z,99.99
2022-10-17T20:50:34.132Z,99.99
2022-10-17T20:51:40.630Z,99.99
2022-10-17T20:52:34.109Z,99.99
2022-10-17T20:53:37.815Z,99.99
2022-10-17T20:54:34.100Z,99.99
2022-10-17T20:55:34.071Z,99.99
2022-10-17T20:56:34.058Z,99.99
2022-10-17T20:57:34.047Z,99.99
2022-10-17T20:58:34.044Z,99.99
2022-10-17T20:59:34.103Z,99.99
2022-10-17T21:00:34.049Z,99.99
2022-10-17T21:01:34.066Z,99.99
2022-10-17T21:02:33.985Z,99.99
2022-10-17T21:03:33.976Z,99.99
2022-10-17T21:04:45.942Z,99.99
2022-10-17T21:05:33.991Z,99.99
2022-10-17T21:06:33.941Z,99.99
2022-10-17T21:07:33.928Z,99.99
2022-10-17T21:08:33.959Z,99.99
2022-10-17T21:09:33.913Z,99.99
2022-10-17T21:10:35.799Z,99.99
2022-10-17T21:11:40.440Z,99.99
2022-10-17T21:12:50.037Z,99.99
2022-10-17T21:13:33.879Z,99.99
2022-10-17T21:14:33.868Z,99.99
2022-10-17T21:15:33.844Z,99.99
2022-10-17T21:16:33.839Z,99.99
2022-10-17T21:17:33.857Z,99.99
2022-10-17T21:18:33.808Z,99.99
2022-10-17T21:19:33.808Z,99.99
2022-10-17T21:20:33.789Z,99.99
2022-10-17T21:21:33.779Z,99.99
2022-10-17T21:22:33.792Z,99.99
2022-10-17T21:23:33.748Z,99.99
2022-10-17T21:24:33.752Z,99.99
2022-10-17T21:25:33.740Z,99.99
2022-10-17T21:26:33.714Z,99.99
2022-10-17T21:27:33.750Z,99.99
2022-10-17T21:28:33.769Z,99.99
2022-10-17T21:29:33.689Z,99.99
2022-10-17T21:30:33.700Z,99.99
2022-10-17T21:31:33.670Z,99.99
2022-10-17T21:32:51.189Z,99.99
2022-10-17T21:33:33.644Z,99.99
2022-10-17T21:34:33.672Z,99.99
2022-10-17T21:35:33.653Z,99.99
2022-10-17T21:36:33.609Z,99.99
2022-10-17T21:37:33.610Z,99.99
2022-10-17T21:38:33.616Z,99.99
2022-10-17T21:39:33.622Z,99.99
2022-10-17T21:40:33.578Z,99.99
2022-10-17T21:41:33.545Z,99.99
2022-10-17T21:42:33.757Z,99.99
2022-10-17T21:43:33.542Z,99.99
2022-10-17T21:44:33.525Z,99.99
2022-10-17T21:45:33.520Z,99.99
2022-10-17T21:46:33.516Z,99.99
2022-10-17T21:47:36.233Z,99.99
2022-10-17T21:48:33.488Z,99.99
2022-10-17T21:49:33.475Z,99.99
2022-10-17T21:50:33.470Z,99.99
2022-10-17T21:51:33.477Z,99.99
2022-10-17T21:52:33.614Z,99.99
2022-10-17T21:53:33.428Z,99.99
2022-10-17T21:54:33.405Z,99.99
2022-10-17T21:55:33.434Z,99.99
2022-10-17T21:56:33.409Z,99.99
2022-10-17T21:57:33.377Z,99.99
2022-10-17T21:58:33.381Z,99.99
2022-10-17T21:59:33.353Z,99.99
2022-10-17T22:00:33.375Z,99.99
2022-10-17T22:01:33.430Z,99.99
2022-10-17T22:02:33.609Z,99.99
2022-10-17T22:03:33.338Z,99.99
2022-10-17T22:04:33.309Z,99.99
2022-10-17T22:05:33.288Z,99.99
2022-10-17T22:06:39.822Z,99.99
2022-10-17T22:07:33.272Z,99.99
2022-10-17T22:08:33.294Z,99.99
2022-10-17T22:09:33.274Z,99.99
2022-10-17T22:10:33.285Z,99.99
2022-10-17T22:11:33.235Z,99.99
2022-10-17T22:12:33.579Z,99.99
2022-10-17T22:13:33.213Z,99.99
2022-10-17T22:14:33.190Z,99.99
2022-10-17T22:15:33.191Z,99.99
2022-10-17T22:16:33.180Z,99.99
2022-10-17T22:17:33.485Z,99.99
2022-10-17T22:18:33.146Z,99.99
2022-10-17T22:19:33.137Z,99.99
2022-10-17T22:20:33.129Z,99.99
2022-10-17T22:21:33.115Z,99.99
2022-10-17T22:22:33.116Z,99.99